createdAt,value
2017-11-19T00:00:02.153Z,5.85
2017-11-19T00:00:37.248Z,5.64
2017-11-19T00:01:12.518Z,5.71
2017-11-19T00:01:48.212Z,5.77
2017-11-19T00:02:23.389Z,5.66
2017-11-19T00:02:59.084Z,5.73
2017-11-19T00:03:34.486Z,5.75
2017-11-19T00:04:09.794Z,5.75
2017-11-19T00:04:44.953Z,5.75
2017-11-19T00:05:20.349Z,5.75
2017-11-19T00:05:55.915Z,5.78
2017-11-19T00:06:31.014Z,5.70
2017-11-19T00:07:06.374Z,5.75
2017-11-19T00:07:41.384Z,5.63
2017-11-19T00:08:16.847Z,5.70
2017-11-19T00:08:52.176Z,5.82
2017-11-19T00:09:27.550Z,5.81
2017-11-19T00:10:03.145Z,5.73
2017-11-19T00:10:38.610Z,5.78
2017-11-19T00:11:13.805Z,5.74
2017-11-19T00:11:49.071Z,5.71
2017-11-19T00:12:24.465Z,5.67
2017-11-19T00:13:00.034Z,5.70
2017-11-19T00:13:35.525Z,5.77
2017-11-19T00:14:11.124Z,5.78
2017-11-19T00:14:46.423Z,5.74
2017-11-19T00:15:21.791Z,5.71
2017-11-19T00:15:57.391Z,5.75
2017-11-19T00:16:32.657Z,5.73
2017-11-19T00:17:07.770Z,5.77
2017-11-19T00:17:43.225Z,5.78
2017-11-19T00:18:18.622Z,5.78
2017-11-19T00:18:53.790Z,5.81
2017-11-19T00:19:29.210Z,5.81
2017-11-19T00:20:04.386Z,5.77
2017-11-19T00:20:39.880Z,5.78
2017-11-19T00:21:15.048Z,5.77
2017-11-19T00:21:50.556Z,5.74
2017-11-19T00:22:25.919Z,5.81
2017-11-19T00:23:01.317Z,5.77
2017-11-19T00:23:36.682Z,5.82
2017-11-19T00:24:11.979Z,5.82
2017-11-19T00:24:47.473Z,5.88
2017-11-19T00:25:22.873Z,5.83
2017-11-19T00:25:58.031Z,5.82
2017-11-19T00:26:33.333Z,5.82
2017-11-19T00:27:08.701Z,5.85
2017-11-19T00:27:44.094Z,5.86
2017-11-19T00:28:19.375Z,5.88
2017-11-19T00:28:54.665Z,5.88
2017-11-19T00:29:30.031Z,5.89
2017-11-19T00:30:05.252Z,5.96
2017-11-19T00:30:46.221Z,5.93
2017-11-19T00:31:21.409Z,5.88
2017-11-19T00:31:56.694Z,5.88
2017-11-19T00:32:32.112Z,5.85
2017-11-19T00:33:07.576Z,5.88
2017-11-19T00:33:42.873Z,5.86
2017-11-19T00:34:18.240Z,5.85
2017-11-19T00:34:53.841Z,5.82
2017-11-19T00:35:28.931Z,5.93
2017-11-19T00:36:04.123Z,5.85
2017-11-19T00:36:39.191Z,5.82
2017-11-19T00:37:14.483Z,5.92
2017-11-19T00:37:49.869Z,5.85
2017-11-19T00:38:25.078Z,5.91
2017-11-19T00:39:00.341Z,5.86
2017-11-19T00:39:35.636Z,5.89
2017-11-19T00:40:10.943Z,5.89
2017-11-19T00:40:46.245Z,5.86
2017-11-19T00:41:21.623Z,5.89
2017-11-19T00:41:57.221Z,5.83
2017-11-19T00:42:32.483Z,5.82
2017-11-19T00:43:07.977Z,5.86
2017-11-19T00:43:43.249Z,5.89
2017-11-19T00:44:18.657Z,5.83
2017-11-19T00:44:54.030Z,5.81
2017-11-19T00:45:29.357Z,5.81
2017-11-19T00:46:04.526Z,5.86
2017-11-19T00:46:39.720Z,5.89
2017-11-19T00:47:15.200Z,5.81
2017-11-19T00:47:50.793Z,5.91
2017-11-19T00:48:26.163Z,5.78
2017-11-19T00:49:01.666Z,5.83
2017-11-19T00:49:36.944Z,5.83
2017-11-19T00:50:12.249Z,5.82
2017-11-19T00:50:47.671Z,5.82
2017-11-19T00:51:23.054Z,5.77
2017-11-19T00:51:58.218Z,5.75
2017-11-19T00:52:33.416Z,5.81
2017-11-19T00:53:08.892Z,5.81
2017-11-19T00:53:44.088Z,5.86
2017-11-19T00:54:19.263Z,5.75
2017-11-19T00:54:54.665Z,5.77
2017-11-19T00:55:30.036Z,5.81
2017-11-19T00:56:05.459Z,5.74
2017-11-19T00:56:40.733Z,5.74
2017-11-19T00:57:16.228Z,5.77
2017-11-19T00:57:51.492Z,5.68
2017-11-19T00:58:26.392Z,5.68
2017-11-19T00:59:01.756Z,5.73
2017-11-19T00:59:37.455Z,5.67
2017-11-19T01:00:12.534Z,5.71
2017-11-19T01:00:47.844Z,5.66
2017-11-19T01:01:23.137Z,5.70
2017-11-19T01:01:58.236Z,5.60
2017-11-19T01:02:33.501Z,5.67
2017-11-19T01:03:08.893Z,5.73
2017-11-19T01:03:44.362Z,5.64
2017-11-19T01:04:19.757Z,5.68
2017-11-19T01:04:54.924Z,5.68
2017-11-19T01:05:30.422Z,5.66
2017-11-19T01:06:05.687Z,5.60
2017-11-19T01:06:41.116Z,5.52
2017-11-19T01:07:16.574Z,5.56
2017-11-19T01:07:52.078Z,5.59
2017-11-19T01:08:27.452Z,5.59
2017-11-19T01:09:02.741Z,5.55
2017-11-19T01:09:38.319Z,5.53
2017-11-19T01:10:13.416Z,5.52
2017-11-19T01:10:48.787Z,5.53
2017-11-19T01:11:24.290Z,5.48
2017-11-19T01:11:59.686Z,5.52
2017-11-19T01:12:34.884Z,5.50
2017-11-19T01:13:10.355Z,5.48
2017-11-19T01:13:45.461Z,5.46
2017-11-19T01:14:20.814Z,5.52
2017-11-19T01:14:56.013Z,5.50
2017-11-19T01:15:31.279Z,5.45
2017-11-19T01:16:06.575Z,5.41
2017-11-19T01:16:42.080Z,5.38
2017-11-19T01:17:17.573Z,5.45
2017-11-19T01:17:52.843Z,5.41
2017-11-19T01:18:28.632Z,5.38
2017-11-19T01:19:04.122Z,5.48
2017-11-19T01:19:39.458Z,5.40
2017-11-19T01:20:14.598Z,5.46
2017-11-19T01:20:50.102Z,5.40
2017-11-19T01:21:25.279Z,5.37
2017-11-19T01:22:00.699Z,5.35
2017-11-19T01:22:35.772Z,5.41
2017-11-19T01:23:11.269Z,5.37
2017-11-19T01:23:46.431Z,5.38
2017-11-19T01:24:21.625Z,5.32
2017-11-19T01:24:57.293Z,5.35
2017-11-19T01:25:32.587Z,5.38
2017-11-19T01:26:07.968Z,5.45
2017-11-19T01:26:43.355Z,5.40
2017-11-19T01:27:18.554Z,5.37
2017-11-19T01:27:53.954Z,5.41
2017-11-19T01:28:29.023Z,5.43
2017-11-19T01:29:04.620Z,5.38
2017-11-19T01:29:39.900Z,5.35
2017-11-19T01:30:14.906Z,5.40
2017-11-19T01:30:50.061Z,5.38
2017-11-19T01:31:25.657Z,5.41
2017-11-19T01:32:00.819Z,5.40
2017-11-19T01:32:35.957Z,5.41
2017-11-19T01:33:11.227Z,5.34
2017-11-19T01:33:46.317Z,5.34
2017-11-19T01:34:21.586Z,5.38
2017-11-19T01:34:56.786Z,5.37
2017-11-19T01:35:31.950Z,5.38
2017-11-19T01:36:07.440Z,5.41
2017-11-19T01:36:42.707Z,5.37
2017-11-19T01:37:18.103Z,5.34
2017-11-19T01:37:53.605Z,5.32
2017-11-19T01:38:29.203Z,5.37
2017-11-19T01:39:04.371Z,5.27
2017-11-19T01:39:40.076Z,5.30
2017-11-19T01:40:15.341Z,5.22
2017-11-19T01:40:50.637Z,5.31
2017-11-19T01:41:26.309Z,5.30
2017-11-19T01:42:01.615Z,5.32
2017-11-19T01:42:37.184Z,5.27
2017-11-19T01:43:12.412Z,5.20
2017-11-19T01:43:47.880Z,5.20
2017-11-19T01:44:23.269Z,5.22
2017-11-19T01:44:58.632Z,5.22
2017-11-19T01:45:33.949Z,5.20
2017-11-19T01:46:09.213Z,5.12
2017-11-19T01:46:44.617Z,5.17
2017-11-19T01:47:19.982Z,5.14
2017-11-19T01:47:55.274Z,5.19
2017-11-19T01:48:30.467Z,5.16
2017-11-19T01:49:05.579Z,5.14
2017-11-19T01:49:40.754Z,5.14
2017-11-19T01:50:16.150Z,5.16
2017-11-19T01:50:51.316Z,5.12
2017-11-19T01:51:26.706Z,5.13
2017-11-19T01:52:02.279Z,5.16
2017-11-19T01:52:37.578Z,5.14
2017-11-19T01:53:12.746Z,5.10
2017-11-19T01:53:47.961Z,5.07
2017-11-19T01:54:23.227Z,5.16
2017-11-19T01:54:58.527Z,5.13
2017-11-19T01:55:33.591Z,5.10
2017-11-19T01:56:09.094Z,5.14
2017-11-19T01:56:44.358Z,5.10
2017-11-19T01:57:19.556Z,5.12
2017-11-19T01:57:55.018Z,5.13
2017-11-19T01:58:30.415Z,5.01
2017-11-19T01:59:05.606Z,5.13
2017-11-19T01:59:40.702Z,5.10
2017-11-19T02:00:15.971Z,5.14
2017-11-19T02:00:51.263Z,5.14
2017-11-19T02:01:26.647Z,5.07
2017-11-19T02:02:02.149Z,5.07
2017-11-19T02:02:37.525Z,5.05
2017-11-19T02:03:13.030Z,5.07
2017-11-19T02:03:48.318Z,5.09
2017-11-19T02:04:23.528Z,5.05
2017-11-19T02:04:58.997Z,5.04
2017-11-19T02:05:34.183Z,5.10
2017-11-19T02:06:09.465Z,5.10
2017-11-19T02:06:44.650Z,5.01
2017-11-19T02:07:20.021Z,5.02
2017-11-19T02:07:55.548Z,4.98
2017-11-19T02:08:31.034Z,5.04
2017-11-19T02:09:06.153Z,4.98
2017-11-19T02:09:41.313Z,4.98
2017-11-19T02:10:16.509Z,4.98
2017-11-19T02:10:51.783Z,5.02
2017-11-19T02:11:26.979Z,4.98
2017-11-19T02:12:02.460Z,5.09
2017-11-19T02:12:37.768Z,5.01
2017-11-19T02:13:13.035Z,5.01
2017-11-19T02:13:48.432Z,4.96
2017-11-19T02:14:23.523Z,5.09
2017-11-19T02:14:58.818Z,4.96
2017-11-19T02:15:34.186Z,5.02
2017-11-19T02:16:09.485Z,5.02
2017-11-19T02:16:44.764Z,5.02
2017-11-19T02:17:20.247Z,5.07
2017-11-19T02:17:55.537Z,5.04
2017-11-19T02:18:30.829Z,5.01
2017-11-19T02:19:06.329Z,4.98
2017-11-19T02:19:42.576Z,4.98
2017-11-19T02:20:17.738Z,5.02
2017-11-19T02:20:53.031Z,4.96
2017-11-19T02:21:28.597Z,5.01
2017-11-19T02:22:04.094Z,4.96
2017-11-19T02:22:39.375Z,4.94
2017-11-19T02:23:14.569Z,5.02
2017-11-19T02:23:49.547Z,4.96
2017-11-19T02:24:24.882Z,4.91
2017-11-19T02:25:00.153Z,4.94
2017-11-19T02:25:35.250Z,4.92
2017-11-19T02:26:10.510Z,4.88
2017-11-19T02:26:45.840Z,4.95
2017-11-19T02:27:21.071Z,4.95
2017-11-19T02:27:56.374Z,4.83
2017-11-19T02:28:31.954Z,4.84
2017-11-19T02:29:07.472Z,4.83
2017-11-19T02:29:42.835Z,4.77
2017-11-19T02:30:17.838Z,4.89
2017-11-19T02:30:53.101Z,4.77
2017-11-19T02:31:28.298Z,4.88
2017-11-19T02:32:03.570Z,4.77
2017-11-19T02:32:38.867Z,4.83
2017-11-19T02:33:14.235Z,4.73
2017-11-19T02:33:49.331Z,4.77
2017-11-19T02:34:24.517Z,4.83
2017-11-19T02:34:59.817Z,4.75
2017-11-19T02:35:34.791Z,4.76
2017-11-19T02:36:10.088Z,4.77
2017-11-19T02:36:45.145Z,4.77
2017-11-19T02:37:20.353Z,4.76
2017-11-19T02:37:56.115Z,4.79
2017-11-19T02:38:31.529Z,4.73
2017-11-19T02:39:07.087Z,4.72
2017-11-19T02:39:42.408Z,4.77
2017-11-19T02:40:17.786Z,4.77
2017-11-19T02:40:52.783Z,4.67
2017-11-19T02:41:28.054Z,4.75
2017-11-19T02:42:03.954Z,4.70
2017-11-19T02:42:39.222Z,4.64
2017-11-19T02:43:14.617Z,4.65
2017-11-19T02:43:49.782Z,4.75
2017-11-19T02:44:25.001Z,4.65
2017-11-19T02:45:00.164Z,4.65
2017-11-19T02:45:35.779Z,4.72
2017-11-19T02:46:11.053Z,4.67
2017-11-19T02:46:46.547Z,4.75
2017-11-19T02:47:22.016Z,4.73
2017-11-19T02:47:57.003Z,4.70
2017-11-19T02:48:32.278Z,4.64
2017-11-19T02:49:07.684Z,4.65
2017-11-19T02:49:43.079Z,4.70
2017-11-19T02:50:18.482Z,4.70
2017-11-19T02:50:53.844Z,4.69
2017-11-19T02:51:29.048Z,4.64
2017-11-19T02:52:04.608Z,4.69
2017-11-19T02:52:40.115Z,4.73
2017-11-19T02:53:15.476Z,4.69
2017-11-19T02:53:50.877Z,4.73
2017-11-19T02:54:26.066Z,4.61
2017-11-19T02:55:01.158Z,4.62
2017-11-19T02:55:36.524Z,4.61
2017-11-19T02:56:11.622Z,4.67
2017-11-19T02:56:46.796Z,4.75
2017-11-19T02:57:22.089Z,4.70
2017-11-19T02:57:57.260Z,4.67
2017-11-19T02:58:32.555Z,4.65
2017-11-19T02:59:07.924Z,4.70
2017-11-19T02:59:43.052Z,4.69
2017-11-19T03:00:18.423Z,4.61
2017-11-19T03:00:53.815Z,4.69
2017-11-19T03:01:29.185Z,4.70
2017-11-19T03:02:04.587Z,4.61
2017-11-19T03:02:39.849Z,4.62
2017-11-19T03:03:15.038Z,4.69
2017-11-19T03:03:50.527Z,4.72
2017-11-19T03:04:25.897Z,4.76
2017-11-19T03:05:01.546Z,4.73
2017-11-19T03:05:36.797Z,4.72
2017-11-19T03:06:12.189Z,4.80
2017-11-19T03:06:47.584Z,4.76
2017-11-19T03:07:22.946Z,4.75
2017-11-19T03:07:58.342Z,4.80
2017-11-19T03:08:33.617Z,4.88
2017-11-19T03:09:08.908Z,4.89
2017-11-19T03:09:44.524Z,4.77
2017-11-19T03:10:19.690Z,4.84
2017-11-19T03:10:54.874Z,4.83
2017-11-19T03:11:30.244Z,4.80
2017-11-19T03:12:05.531Z,4.75
2017-11-19T03:12:41.099Z,4.86
2017-11-19T03:13:16.996Z,4.83
2017-11-19T03:13:52.386Z,4.88
2017-11-19T03:14:27.555Z,4.79
2017-11-19T03:15:03.172Z,4.75
2017-11-19T03:15:38.528Z,4.80
2017-11-19T03:16:14.025Z,4.73
2017-11-19T03:16:49.216Z,4.76
2017-11-19T03:17:24.297Z,4.76
2017-11-19T03:17:59.784Z,4.72
2017-11-19T03:18:35.351Z,4.70
2017-11-19T03:19:10.741Z,4.69
2017-11-19T03:19:46.065Z,4.64
2017-11-19T03:20:21.327Z,4.70
2017-11-19T03:20:56.514Z,4.69
2017-11-19T03:21:31.994Z,4.70
2017-11-19T03:22:07.080Z,4.61
2017-11-19T03:22:42.647Z,4.61
2017-11-19T03:23:17.738Z,4.61
2017-11-19T03:23:53.033Z,4.61
2017-11-19T03:24:28.104Z,4.64
2017-11-19T03:25:03.320Z,4.54
2017-11-19T03:25:38.590Z,4.62
2017-11-19T03:26:13.978Z,4.57
2017-11-19T03:26:49.269Z,4.69
2017-11-19T03:27:24.540Z,4.70
2017-11-19T03:27:59.825Z,4.65
2017-11-19T03:28:35.102Z,4.69
2017-11-19T03:29:10.814Z,4.64
2017-11-19T03:29:46.137Z,4.58
2017-11-19T03:30:21.306Z,4.65
2017-11-19T03:30:56.500Z,4.59
2017-11-19T03:31:31.458Z,4.59
2017-11-19T03:32:07.254Z,4.62
2017-11-19T03:32:44.946Z,4.57
2017-11-19T03:33:20.711Z,4.58
2017-11-19T03:33:56.102Z,4.57
2017-11-19T03:34:31.371Z,4.54
2017-11-19T03:35:06.683Z,4.57
2017-11-19T03:35:41.951Z,4.61
2017-11-19T03:36:17.238Z,4.58
2017-11-19T03:36:52.706Z,4.57
2017-11-19T03:37:28.210Z,4.61
2017-11-19T03:38:03.772Z,4.57
2017-11-19T03:38:39.168Z,4.57
2017-11-19T03:39:14.563Z,4.62
2017-11-19T03:39:50.131Z,4.61
2017-11-19T03:40:25.651Z,4.69
2017-11-19T03:41:00.818Z,4.61
2017-11-19T03:41:36.211Z,4.64
2017-11-19T03:42:11.891Z,4.70
2017-11-19T03:42:47.153Z,4.67
2017-11-19T03:43:22.556Z,4.62
2017-11-19T03:43:57.912Z,4.65
2017-11-19T03:44:33.303Z,4.65
2017-11-19T03:45:08.627Z,4.72
2017-11-19T03:45:43.789Z,4.62
2017-11-19T03:46:19.290Z,4.73
2017-11-19T03:46:54.645Z,4.73
2017-11-19T03:47:29.943Z,4.73
2017-11-19T03:48:05.445Z,4.67
2017-11-19T03:48:40.604Z,4.70
2017-11-19T03:49:16.101Z,4.75
2017-11-19T03:49:51.168Z,4.77
2017-11-19T03:50:26.491Z,4.75
2017-11-19T03:51:02.252Z,4.67
2017-11-19T03:51:37.569Z,4.72
2017-11-19T03:52:12.964Z,4.72
2017-11-19T03:52:48.239Z,4.72
2017-11-19T03:53:23.331Z,4.75
2017-11-19T03:53:58.707Z,4.72
2017-11-19T03:54:33.994Z,4.73
2017-11-19T03:55:09.612Z,4.70
2017-11-19T03:55:44.986Z,4.73
2017-11-19T03:56:20.467Z,4.73
2017-11-19T03:56:55.835Z,4.72
2017-11-19T03:57:31.231Z,4.73
2017-11-19T03:58:06.627Z,4.70
2017-11-19T03:58:42.002Z,4.72
2017-11-19T03:59:17.192Z,4.67
2017-11-19T03:59:52.458Z,4.69
2017-11-19T04:00:27.674Z,4.75
2017-11-19T04:01:02.946Z,4.69
2017-11-19T04:01:38.239Z,4.69
2017-11-19T04:02:13.847Z,4.65
2017-11-19T04:02:49.311Z,4.62
2017-11-19T04:03:24.703Z,4.64
2017-11-19T04:04:00.275Z,4.64
2017-11-19T04:04:35.855Z,4.73
2017-11-19T04:05:11.083Z,4.70
2017-11-19T04:05:46.557Z,4.72
2017-11-19T04:06:22.146Z,4.70
2017-11-19T04:06:57.217Z,4.73
2017-11-19T04:07:32.609Z,4.75
2017-11-19T04:08:07.804Z,4.75
2017-11-19T04:08:43.074Z,4.75
2017-11-19T04:09:18.479Z,4.79
2017-11-19T04:09:53.852Z,4.80
2017-11-19T04:10:29.071Z,4.86
2017-11-19T04:11:04.595Z,4.79
2017-11-19T04:11:39.938Z,4.88
2017-11-19T04:12:15.654Z,4.77
2017-11-19T04:12:50.918Z,4.88
2017-11-19T04:13:26.016Z,4.86
2017-11-19T04:14:01.179Z,4.86
2017-11-19T04:14:36.677Z,4.79
2017-11-19T04:15:11.973Z,4.89
2017-11-19T04:15:47.361Z,4.84
2017-11-19T04:16:22.949Z,4.77
2017-11-19T04:16:58.220Z,4.94
2017-11-19T04:17:33.414Z,4.83
2017-11-19T04:18:08.707Z,4.79
2017-11-19T04:18:43.875Z,4.92
2017-11-19T04:19:19.089Z,4.91
2017-11-19T04:19:54.251Z,4.77
2017-11-19T04:20:29.464Z,4.84
2017-11-19T04:21:04.763Z,4.80
2017-11-19T04:21:40.132Z,4.80
2017-11-19T04:22:15.522Z,4.70
2017-11-19T04:22:50.686Z,4.83
2017-11-19T04:23:26.279Z,4.80
2017-11-19T04:24:01.444Z,4.75
2017-11-19T04:24:36.838Z,4.72
2017-11-19T04:25:12.035Z,4.80
2017-11-19T04:25:47.135Z,4.76
2017-11-19T04:26:22.532Z,4.67
2017-11-19T04:26:57.998Z,4.75
2017-11-19T04:27:33.089Z,4.65
2017-11-19T04:28:08.677Z,4.73
2017-11-19T04:28:43.847Z,4.70
2017-11-19T04:29:19.442Z,4.73
2017-11-19T04:29:54.714Z,4.77
2017-11-19T04:30:30.225Z,4.67
2017-11-19T04:31:05.824Z,4.72
2017-11-19T04:31:41.091Z,4.67
2017-11-19T04:32:16.182Z,4.75
2017-11-19T04:32:51.650Z,4.64
2017-11-19T04:33:26.738Z,4.77
2017-11-19T04:34:01.904Z,4.75
2017-11-19T04:34:37.397Z,4.73
2017-11-19T04:35:12.586Z,4.72
2017-11-19T04:35:47.883Z,4.76
2017-11-19T04:36:23.375Z,4.75
2017-11-19T04:36:58.759Z,4.67
2017-11-19T04:37:33.847Z,4.72
2017-11-19T04:38:09.144Z,4.69
2017-11-19T04:38:44.615Z,4.73
2017-11-19T04:39:20.120Z,4.72
2017-11-19T04:39:55.390Z,4.67
2017-11-19T04:40:30.873Z,4.70
2017-11-19T04:41:06.590Z,4.69
2017-11-19T04:41:41.964Z,4.65
2017-11-19T04:42:17.249Z,4.67
2017-11-19T04:42:52.529Z,4.72
2017-11-19T04:43:28.018Z,4.76
2017-11-19T04:44:03.524Z,4.72
2017-11-19T04:44:38.881Z,4.69
2017-11-19T04:45:14.178Z,4.64
2017-11-19T04:45:49.160Z,4.65
2017-11-19T04:46:24.460Z,4.64
2017-11-19T04:46:59.629Z,4.70
2017-11-19T04:47:34.733Z,4.75
2017-11-19T04:48:10.020Z,4.65
2017-11-19T04:48:45.597Z,4.67
2017-11-19T04:49:20.783Z,4.75
2017-11-19T04:49:55.747Z,4.70
2017-11-19T04:50:30.960Z,4.69
2017-11-19T04:51:06.261Z,4.73
2017-11-19T04:51:41.639Z,4.70
2017-11-19T04:52:16.842Z,4.80
2017-11-19T04:52:52.107Z,4.75
2017-11-19T04:53:27.799Z,4.83
2017-11-19T04:54:03.408Z,4.80
2017-11-19T04:54:38.756Z,4.77
2017-11-19T04:55:13.746Z,4.75
2017-11-19T04:55:48.841Z,4.89
2017-11-19T04:56:24.244Z,4.91
2017-11-19T04:56:59.515Z,4.89
2017-11-19T04:57:34.717Z,4.89
2017-11-19T04:58:10.207Z,4.88
2017-11-19T04:58:45.671Z,4.92
2017-11-19T04:59:20.966Z,4.99
2017-11-19T04:59:56.237Z,4.99
2017-11-19T05:00:31.635Z,4.94
2017-11-19T05:01:07.044Z,4.98
2017-11-19T05:01:42.111Z,5.01
2017-11-19T05:02:17.603Z,5.05
2017-11-19T05:02:52.771Z,5.01
2017-11-19T05:03:28.073Z,4.99
2017-11-19T05:04:03.437Z,5.02
2017-11-19T05:04:38.934Z,5.04
2017-11-19T05:05:14.525Z,5.05
2017-11-19T05:05:49.700Z,5.07
2017-11-19T05:06:25.123Z,4.98
2017-11-19T05:07:00.496Z,5.07
2017-11-19T05:07:35.577Z,5.07
2017-11-19T05:08:10.718Z,5.02
2017-11-19T05:08:46.110Z,5.13
2017-11-19T05:09:21.507Z,5.04
2017-11-19T05:09:56.677Z,5.09
2017-11-19T05:10:32.067Z,5.04
2017-11-19T05:11:07.785Z,5.01
2017-11-19T05:11:43.054Z,5.02
2017-11-19T05:12:18.251Z,5.05
2017-11-19T05:12:53.630Z,5.07
2017-11-19T05:13:29.023Z,5.07
2017-11-19T05:14:04.617Z,5.10
2017-11-19T05:14:39.779Z,5.09
2017-11-19T05:15:15.080Z,5.07
2017-11-19T05:15:50.250Z,5.10
2017-11-19T05:16:25.462Z,5.07
2017-11-19T05:17:01.032Z,5.09
2017-11-19T05:17:36.531Z,4.99
2017-11-19T05:18:11.504Z,5.04
2017-11-19T05:18:46.700Z,5.12
2017-11-19T05:19:21.667Z,5.12
2017-11-19T05:19:57.079Z,5.07
2017-11-19T05:20:32.045Z,5.16
2017-11-19T05:21:07.565Z,5.04
2017-11-19T05:21:42.758Z,5.01
2017-11-19T05:22:18.046Z,5.04
2017-11-19T05:22:53.334Z,5.12
2017-11-19T05:23:28.707Z,5.10
2017-11-19T05:24:04.105Z,5.10
2017-11-19T05:24:39.274Z,5.17
2017-11-19T05:25:14.253Z,5.14
2017-11-19T05:25:49.546Z,5.13
2017-11-19T05:26:24.842Z,5.19
2017-11-19T05:27:00.039Z,5.20
2017-11-19T05:27:35.015Z,5.20
2017-11-19T05:28:10.608Z,5.14
2017-11-19T05:28:45.700Z,5.25
2017-11-19T05:29:21.089Z,5.14
2017-11-19T05:29:56.483Z,5.20
2017-11-19T05:30:31.856Z,5.23
2017-11-19T05:31:06.950Z,5.23
2017-11-19T05:31:42.344Z,5.27
2017-11-19T05:32:17.642Z,5.27
2017-11-19T05:32:52.941Z,5.19
2017-11-19T05:33:28.017Z,5.28
2017-11-19T05:34:03.421Z,5.25
2017-11-19T05:34:38.479Z,5.25
2017-11-19T05:35:13.670Z,5.25
2017-11-19T05:35:48.670Z,5.16
2017-11-19T05:36:23.879Z,5.32
2017-11-19T05:36:59.271Z,5.31
2017-11-19T05:37:34.656Z,5.16
2017-11-19T05:38:10.149Z,5.20
2017-11-19T05:38:45.654Z,5.23
2017-11-19T05:39:21.036Z,5.16
2017-11-19T05:39:56.535Z,5.10
2017-11-19T05:40:31.908Z,5.17
2017-11-19T05:41:07.306Z,5.13
2017-11-19T05:41:42.716Z,5.07
2017-11-19T05:42:17.914Z,5.12
2017-11-19T05:42:53.315Z,5.12
2017-11-19T05:43:28.783Z,5.14
2017-11-19T05:44:04.093Z,5.14
2017-11-19T05:44:39.355Z,5.19
2017-11-19T05:45:14.645Z,5.10
2017-11-19T05:45:49.951Z,5.09
2017-11-19T05:46:25.344Z,5.07
2017-11-19T05:47:00.846Z,5.01
2017-11-19T05:47:35.818Z,5.01
2017-11-19T05:48:11.221Z,5.01
2017-11-19T05:48:46.511Z,4.96
2017-11-19T05:49:21.777Z,4.95
2017-11-19T05:49:57.176Z,4.91
2017-11-19T05:50:32.647Z,4.95
2017-11-19T05:51:07.940Z,4.98
2017-11-19T05:51:43.336Z,4.95
2017-11-19T05:52:18.630Z,4.89
2017-11-19T05:52:53.823Z,4.92
2017-11-19T05:53:29.000Z,4.91
2017-11-19T05:54:04.295Z,4.94
2017-11-19T05:54:39.372Z,4.79
2017-11-19T05:55:14.967Z,4.91
2017-11-19T05:55:50.057Z,4.89
2017-11-19T05:56:25.334Z,4.88
2017-11-19T05:57:00.751Z,4.88
2017-11-19T05:57:36.021Z,4.89
2017-11-19T05:58:11.229Z,4.95
2017-11-19T05:58:46.514Z,4.92
2017-11-19T05:59:21.591Z,4.80
2017-11-19T05:59:56.685Z,4.89
2017-11-19T06:00:31.954Z,4.88
2017-11-19T06:01:07.455Z,4.88
2017-11-19T06:01:42.976Z,4.80
2017-11-19T06:02:18.403Z,4.73
2017-11-19T06:02:53.726Z,4.69
2017-11-19T06:03:28.829Z,4.76
2017-11-19T06:04:04.144Z,4.69
2017-11-19T06:04:39.632Z,4.75
2017-11-19T06:05:15.154Z,4.64
2017-11-19T06:05:50.478Z,4.59
2017-11-19T06:06:25.876Z,4.69
2017-11-19T06:07:01.325Z,4.61
2017-11-19T06:07:36.613Z,4.55
2017-11-19T06:08:11.940Z,4.62
2017-11-19T06:08:47.556Z,4.55
2017-11-19T06:09:22.846Z,4.55
2017-11-19T06:09:58.066Z,4.55
2017-11-19T06:10:33.267Z,4.54
2017-11-19T06:11:08.579Z,4.57
2017-11-19T06:11:44.026Z,4.54
2017-11-19T06:12:19.218Z,4.59
2017-11-19T06:12:54.438Z,4.51
2017-11-19T06:13:29.636Z,4.59
2017-11-19T06:14:04.756Z,4.50
2017-11-19T06:14:40.154Z,4.47
2017-11-19T06:15:15.377Z,4.54
2017-11-19T06:15:50.899Z,4.47
2017-11-19T06:16:26.188Z,4.57
2017-11-19T06:17:01.800Z,4.59
2017-11-19T06:17:37.177Z,4.59
2017-11-19T06:18:12.874Z,4.57
2017-11-19T06:18:48.373Z,4.54
2017-11-19T06:19:23.546Z,4.61
2017-11-19T06:19:59.038Z,4.69
2017-11-19T06:20:34.436Z,4.62
2017-11-19T06:21:09.606Z,4.57
2017-11-19T06:21:45.034Z,4.65
2017-11-19T06:22:20.303Z,4.59
2017-11-19T06:22:55.498Z,4.65
2017-11-19T06:23:30.886Z,4.61
2017-11-19T06:24:05.963Z,4.70
2017-11-19T06:24:41.238Z,4.67
2017-11-19T06:25:16.633Z,4.69
2017-11-19T06:25:52.298Z,4.62
2017-11-19T06:26:27.668Z,4.62
2017-11-19T06:27:03.137Z,4.69
2017-11-19T06:27:38.707Z,4.72
2017-11-19T06:28:14.302Z,4.70
2017-11-19T06:28:49.401Z,4.65
2017-11-19T06:29:24.773Z,4.69
2017-11-19T06:30:00.177Z,4.72
2017-11-19T06:30:35.446Z,4.72
2017-11-19T06:31:10.651Z,4.73
2017-11-19T06:31:45.941Z,4.67
2017-11-19T06:32:21.238Z,4.73
2017-11-19T06:32:56.542Z,4.70
2017-11-19T06:33:31.808Z,4.76
2017-11-19T06:34:07.199Z,4.76
2017-11-19T06:34:42.372Z,4.76
2017-11-19T06:35:17.571Z,4.76
2017-11-19T06:35:52.964Z,4.73
2017-11-19T06:36:28.536Z,4.70
2017-11-19T06:37:03.751Z,4.79
2017-11-19T06:37:39.146Z,4.72
2017-11-19T06:38:14.333Z,4.77
2017-11-19T06:38:49.825Z,4.73
2017-11-19T06:39:25.105Z,4.75
2017-11-19T06:40:00.502Z,4.72
2017-11-19T06:40:35.687Z,4.64
2017-11-19T06:41:11.082Z,4.67
2017-11-19T06:41:46.474Z,4.77
2017-11-19T06:42:22.070Z,4.67
2017-11-19T06:42:57.372Z,4.72
2017-11-19T06:43:32.748Z,4.64
2017-11-19T06:44:08.138Z,4.70
2017-11-19T06:44:43.408Z,4.59
2017-11-19T06:45:18.797Z,4.70
2017-11-19T06:45:53.896Z,4.64
2017-11-19T06:46:29.178Z,4.69
2017-11-19T06:47:04.517Z,4.55
2017-11-19T06:47:39.826Z,4.59
2017-11-19T06:48:15.123Z,4.57
2017-11-19T06:48:50.519Z,4.58
2017-11-19T06:49:25.894Z,4.61
2017-11-19T06:50:01.393Z,4.57
2017-11-19T06:50:36.964Z,4.47
2017-11-19T06:51:12.556Z,4.47
2017-11-19T06:51:47.858Z,4.54
2017-11-19T06:52:23.251Z,4.42
2017-11-19T06:52:58.647Z,4.55
2017-11-19T06:53:34.015Z,4.51
2017-11-19T06:54:09.109Z,4.54
2017-11-19T06:54:44.510Z,4.51
2017-11-19T06:55:19.677Z,4.42
2017-11-19T06:55:54.780Z,4.42
2017-11-19T06:56:29.958Z,4.44
2017-11-19T06:57:05.259Z,4.40
2017-11-19T06:57:40.763Z,4.43
2017-11-19T06:58:16.052Z,4.42
2017-11-19T06:58:51.549Z,4.42
2017-11-19T06:59:26.920Z,4.51
2017-11-19T07:00:02.233Z,4.44
2017-11-19T07:00:37.503Z,4.42
2017-11-19T07:01:13.301Z,4.40
2017-11-19T07:01:48.693Z,4.40
2017-11-19T07:02:23.792Z,4.43
2017-11-19T07:02:59.389Z,4.39
2017-11-19T07:03:34.859Z,4.37
2017-11-19T07:04:10.060Z,4.37
2017-11-19T07:04:45.455Z,4.33
2017-11-19T07:05:20.730Z,4.46
2017-11-19T07:05:56.125Z,4.47
2017-11-19T07:06:31.395Z,4.42
2017-11-19T07:07:06.812Z,4.46
2017-11-19T07:07:42.385Z,4.40
2017-11-19T07:08:17.588Z,4.42
2017-11-19T07:08:52.780Z,4.43
2017-11-19T07:09:28.051Z,4.50
2017-11-19T07:10:03.150Z,4.43
2017-11-19T07:10:38.337Z,4.44
2017-11-19T07:11:13.716Z,4.40
2017-11-19T07:11:49.023Z,4.40
2017-11-19T07:12:24.310Z,4.34
2017-11-19T07:12:59.706Z,4.37
2017-11-19T07:13:35.180Z,4.43
2017-11-19T07:14:10.376Z,4.39
2017-11-19T07:14:45.747Z,4.37
2017-11-19T07:15:21.141Z,4.50
2017-11-19T07:15:56.436Z,4.40
2017-11-19T07:16:32.025Z,4.34
2017-11-19T07:17:07.627Z,4.40
2017-11-19T07:17:43.016Z,4.43
2017-11-19T07:18:18.425Z,4.37
2017-11-19T07:18:53.725Z,4.44
2017-11-19T07:19:29.002Z,4.37
2017-11-19T07:20:04.302Z,4.46
2017-11-19T07:20:39.687Z,4.44
2017-11-19T07:21:15.290Z,4.59
2017-11-19T07:21:50.557Z,4.40
2017-11-19T07:22:25.762Z,4.47
2017-11-19T07:23:01.373Z,4.46
2017-11-19T07:23:36.775Z,4.50
2017-11-19T07:24:11.950Z,4.54
2017-11-19T07:24:47.252Z,4.50
2017-11-19T07:25:22.554Z,4.55
2017-11-19T07:25:58.129Z,4.51
2017-11-19T07:26:33.521Z,4.54
2017-11-19T07:27:08.915Z,4.47
2017-11-19T07:27:44.311Z,4.52
2017-11-19T07:28:19.905Z,4.57
2017-11-19T07:28:55.286Z,4.59
2017-11-19T07:29:30.682Z,4.62
2017-11-19T07:30:05.866Z,4.58
2017-11-19T07:30:41.256Z,4.58
2017-11-19T07:31:16.726Z,4.70
2017-11-19T07:31:52.122Z,4.59
2017-11-19T07:32:27.633Z,4.65
2017-11-19T07:33:03.145Z,4.59
2017-11-19T07:33:38.635Z,4.69
2017-11-19T07:34:13.814Z,4.75
2017-11-19T07:34:49.005Z,4.70
2017-11-19T07:35:24.023Z,4.73
2017-11-19T07:35:59.400Z,4.72
2017-11-19T07:36:34.599Z,4.62
2017-11-19T07:37:09.769Z,4.69
2017-11-19T07:37:44.996Z,4.67
2017-11-19T07:38:20.259Z,4.72
2017-11-19T07:38:55.657Z,4.67
2017-11-19T07:39:31.043Z,4.67
2017-11-19T07:40:06.225Z,4.64
2017-11-19T07:40:41.507Z,4.75
2017-11-19T07:41:16.890Z,4.64
2017-11-19T07:41:52.188Z,4.62
2017-11-19T07:42:27.584Z,4.67
2017-11-19T07:43:02.873Z,4.73
2017-11-19T07:43:38.171Z,4.65
2017-11-19T07:44:13.535Z,4.76
2017-11-19T07:44:49.329Z,4.72
2017-11-19T07:45:24.625Z,4.69
2017-11-19T07:46:00.094Z,4.77
2017-11-19T07:46:35.600Z,4.62
2017-11-19T07:47:10.967Z,4.70
2017-11-19T07:47:46.286Z,4.69
2017-11-19T07:48:21.657Z,4.69
2017-11-19T07:48:57.060Z,4.70
2017-11-19T07:49:32.562Z,4.72
2017-11-19T07:50:08.037Z,4.84